Time;durP1;ratioP1;P1;durP2;ratioP2;P2;SDS_P1;SDS_P2;PMS_P1;PMS_P2;Temp;Humidity;BMP_temperature;BMP_pressure;BME280_temperature;BME280_humidity;BME280_pressure;Samples;Min_cycle;Max_cycle;Signal;HPM_P1;HPM_P2
2023/04/30 00:00:01;;;;;;;21.47;11.20;;;;;;;11.02;90.43;94868.88;5024574;28;20244;-79
2023/04/30 00:02:26;;;;;;;25.17;11.43;;;;;;;11.15;89.10;94873.31;5017545;28;20241;-80
2023/04/30 00:04:52;;;;;;;23.70;11.10;;;;;;;11.25;88.14;94877.09;5035385;28;20242;-79
2023/04/30 00:07:17;;;;;;;20.23;10.03;;;;;;;11.22;87.76;94877.53;5044467;28;20246;-80
2023/04/30 00:09:43;;;;;;;22.60;10.03;;;;;;;11.10;88.55;94870.47;5001202;28;21059;-80
2023/04/30 00:12:08;;;;;;;18.93;10.27;;;;;;;11.08;88.60;94875.13;5012436;28;20237;-80
2023/04/30 00:14:35;;;;;;;18.93;9.73;;;;;;;11.18;86.79;94873.69;4998691;28;20237;-80
2023/04/30 00:17:00;;;;;;;19.90;9.47;;;;;;;11.23;86.29;94876.50;5017263;28;20227;-79
2023/04/30 00:19:26;;;;;;;15.90;8.70;;;;;;;11.10;86.87;94868.69;4994376;28;20256;-78
2023/04/30 00:21:51;;;;;;;18.67;9.70;;;;;;;11.11;86.78;94870.28;5042767;28;20237;-79
2023/04/30 00:24:17;;;;;;;17.07;9.67;;;;;;;10.97;88.06;94865.25;5020541;28;20238;-80
2023/04/30 00:26:43;;;;;;;21.00;10.30;;;;;;;11.17;87.26;94863.41;5028351;28;20233;-80
2023/04/30 00:29:09;;;;;;;24.23;11.03;;;;;;;11.21;87.59;94864.63;5039525;28;20953;-79
2023/04/30 00:31:35;;;;;;;26.27;10.83;;;;;;;11.17;87.74;94866.03;4995075;28;20277;-79
2023/04/30 00:34:00;;;;;;;21.27;11.03;;;;;;;11.03;88.73;94864.44;5013208;28;20293;-80
2023/04/30 00:36:25;;;;;;;23.87;11.03;;;;;;;10.90;88.84;94874.91;5015739;28;20215;-79
2023/04/30 00:38:51;;;;;;;22.67;11.37;;;;;;;10.95;89.36;94875.13;5021792;28;20223;-79
2023/04/30 00:41:16;;;;;;;23.10;11.20;;;;;;;10.78;89.72;94872.09;5027007;28;20215;-80
2023/04/30 00:43:42;;;;;;;20.57;10.90;;;;;;;10.65;90.75;94867.66;5036028;28;20233;-80
2023/04/30 00:46:07;;;;;;;21.40;10.77;;;;;;;10.69;90.68;94874.13;5033224;28;20459;-79
2023/04/30 00:48:33;;;;;;;20.47;11.30;;;;;;;10.62;90.76;94872.53;5020626;28;20732;-80
2023/04/30 00:50:59;;;;;;;21.63;11.17;;;;;;;10.50;91.38;94867.06;5022026;28;20227;-79
2023/04/30 00:53:25;;;;;;;20.87;10.53;;;;;;;10.33;91.94;94868.47;5039162;28;20248;-79
2023/04/30 00:55:50;;;;;;;19.33;10.97;;;;;;;10.17;93.99;94868.84;5048026;28;20218;-80
2023/04/30 00:58:16;;;;;;;21.80;11.63;;;;;;;10.22;93.46;94855.16;5044062;28;20219;-79
2023/04/30 01:00:45;;;;;;;21.10;10.37;;;;;;;10.16;93.55;94864.59;5034746;28;20253;-79
2023/04/30 01:03:14;;;;;;;20.20;10.60;;;;;;;10.04;93.92;94863.53;4999073;28;20219;-79
2023/04/30 01:05:40;;;;;;;23.07;11.00;;;;;;;10.04;93.97;94864.34;5023033;28;20290;-79
2023/04/30 01:08:06;;;;;;;18.03;10.33;;;;;;;10.17;93.04;94863.59;5009432;28;20329;-77
2023/04/30 01:10:37;;;;;;;20.97;10.63;;;;;;;10.12;93.41;94866.00;5027994;28;20453;-78
2023/04/30 01:13:11;;;;;;;20.20;10.47;;;;;;;10.26;92.08;94865.03;5012735;28;20239;-80
2023/04/30 01:15:59;;;;;;;20.90;10.03;;;;;;;10.15;92.43;94861.16;5020255;28;20790;-78
2023/04/30 01:18:28;;;;;;;19.87;9.97;;;;;;;10.30;90.94;94868.03;5022388;28;20226;-79
2023/04/30 01:21:00;;;;;;;16.70;9.33;;;;;;;10.36;90.29;94868.06;5023866;28;20273;-79
2023/04/30 01:23:34;;;;;;;19.00;10.00;;;;;;;10.25;91.47;94870.44;4997728;28;20248;-79
2023/04/30 01:26:12;;;;;;;19.77;10.00;;;;;;;10.06;92.38;94864.94;5032068;28;20228;-78
2023/04/30 01:28:37;;;;;;;19.40;9.90;;;;;;;10.21;91.66;94861.38;5032627;28;20238;-78
2023/04/30 01:31:03;;;;;;;17.80;10.07;;;;;;;10.33;91.46;94862.41;5016172;28;20233;-78
2023/04/30 01:33:28;;;;;;;20.50;9.80;;;;;;;10.31;92.10;94862.63;5011694;28;20238;-79
2023/04/30 01:36:44;;;;;;;17.60;9.73;;;;;;;9.99;92.75;94863.31;5022110;28;20230;-79
2023/04/30 01:39:30;;;;;;;18.80;9.77;;;;;;;10.01;92.26;94863.91;5008058;28;20736;-78
2023/04/30 01:42:05;;;;;;;17.97;9.77;;;;;;;9.98;93.05;94869.56;5034708;28;20218;-79
2023/04/30 01:44:42;;;;;;;20.30;9.70;;;;;;;9.93;93.18;94866.72;5038943;28;20230;-78
2023/04/30 01:47:09;;;;;;;21.03;9.87;;;;;;;9.84;93.48;94862.69;5009014;28;20226;-79
2023/04/30 01:49:37;;;;;;;20.07;9.70;;;;;;;9.82;93.99;94862.03;5016846;28;20246;-78
2023/04/30 01:52:12;;;;;;;18.83;9.90;;;;;;;9.90;93.10;94867.13;5034854;28;20266;-78
2023/04/30 01:54:59;;;;;;;20.40;9.80;;;;;;;10.02;92.76;94866.34;5001086;28;20689;-78
2023/04/30 01:57:31;;;;;;;18.47;9.20;;;;;;;10.01;93.04;94866.53;5032038;28;20227;-77
2023/04/30 01:59:56;;;;;;;19.57;9.97;;;;;;;9.94;92.55;94860.47;5037661;28;20242;-78
2023/04/30 02:02:22;;;;;;;22.60;9.97;;;;;;;10.03;92.36;94867.16;5019568;28;20237;-77
2023/04/30 02:04:47;;;;;;;18.33;9.40;;;;;;;10.13;92.04;94865.00;5018897;28;20226;-79
2023/04/30 02:07:14;;;;;;;17.17;9.40;;;;;;;10.10;92.30;94868.00;5023111;28;20222;-78
2023/04/30 02:09:40;;;;;;;19.80;9.67;;;;;;;9.94;93.00;94863.09;5000198;28;20257;-79
2023/04/30 02:12:06;;;;;;;18.00;9.40;;;;;;;10.08;92.81;94862.13;5010800;28;20231;-77
2023/04/30 02:14:31;;;;;;;16.37;9.60;;;;;;;10.15;91.94;94869.03;5017259;28;20816;-79
2023/04/30 02:16:57;;;;;;;18.80;9.57;;;;;;;10.17;92.15;94863.59;5023137;28;20230;-79
2023/04/30 02:19:22;;;;;;;18.87;10.00;;;;;;;9.90;93.29;94870.53;5010565;28;20241;-78
2023/04/30 02:21:48;;;;;;;20.07;9.37;;;;;;;9.99;93.24;94863.31;5026388;28;20222;-78
2023/04/30 02:24:13;;;;;;;19.17;9.40;;;;;;;9.83;94.64;94861.06;5022448;28;20227;-78
2023/04/30 02:26:39;;;;;;;21.47;9.60;;;;;;;9.72;95.11;94866.88;5030137;28;20343;-78
2023/04/30 02:29:04;;;;;;;19.27;9.30;;;;;;;9.75;94.39;94859.41;5013717;28;20226;-78
2023/04/30 02:31:30;;;;;;;18.33;9.63;;;;;;;9.66;95.13;94862.41;5026654;28;20237;-77
2023/04/30 02:33:56;;;;;;;21.87;9.60;;;;;;;9.64;94.61;94856.56;5017064;28;20234;-79
2023/04/30 02:36:21;;;;;;;20.63;9.77;;;;;;;9.64;94.94;94852.16;5032076;28;20234;-79
2023/04/30 02:38:47;;;;;;;21.30;9.80;;;;;;;9.77;94.55;94854.81;5030281;28;20231;-79
2023/04/30 02:41:12;;;;;;;20.77;9.57;;;;;;;9.62;94.65;94866.41;5012918;28;20234;-79
2023/04/30 02:43:38;;;;;;;22.43;9.63;;;;;;;9.69;94.67;94865.44;5039609;28;20231;-79
2023/04/30 02:46:03;;;;;;;18.37;9.87;;;;;;;9.79;94.52;94855.41;5039858;28;20234;-79
2023/04/30 02:48:29;;;;;;;19.97;9.80;;;;;;;9.92;93.50;94859.88;5036711;28;20261;-79
2023/04/30 02:50:54;;;;;;;18.37;9.97;;;;;;;10.11;92.52;94867.81;5010722;28;20227;-81
2023/04/30 02:53:19;;;;;;;22.27;10.30;;;;;;;10.07;93.94;94865.75;5003644;28;20226;-79
2023/04/30 02:55:45;;;;;;;18.53;9.97;;;;;;;9.93;94.00;94866.72;5013568;28;20226;-80
2023/04/30 02:58:11;;;;;;;21.23;10.03;;;;;;;10.13;93.67;94875.44;5011652;28;20222;-79
2023/04/30 03:00:36;;;;;;;21.77;9.97;;;;;;;10.15;93.78;94870.81;5013217;28;20249;-79
2023/04/30 03:03:02;;;;;;;20.30;9.53;;;;;;;10.07;93.69;94868.38;5014019;28;20262;-79
2023/04/30 03:05:28;;;;;;;17.13;10.07;;;;;;;10.11;93.16;94874.81;5008714;28;20237;-78
2023/04/30 03:07:53;;;;;;;23.17;10.43;;;;;;;10.14;93.47;94877.88;5032811;28;20222;-78
2023/04/30 03:10:19;;;;;;;18.13;9.33;;;;;;;10.09;93.72;94879.44;5031654;28;20230;-79
2023/04/30 03:12:44;;;;;;;18.40;10.07;;;;;;;10.09;93.97;94875.03;5010678;28;20231;-78
2023/04/30 03:15:10;;;;;;;19.43;9.90;;;;;;;10.13;93.74;94878.88;5020532;28;20230;-78
2023/04/30 03:17:35;;;;;;;21.57;9.73;;;;;;;10.02;93.42;94883.84;5022182;28;20235;-79
2023/04/30 03:20:01;;;;;;;19.33;9.33;;;;;;;9.84;94.30;94889.59;5015192;28;20875;-79
2023/04/30 03:22:26;;;;;;;17.67;8.97;;;;;;;9.90;93.86;94890.63;5036100;28;20233;-79
2023/04/30 03:24:52;;;;;;;17.60;9.37;;;;;;;10.01;92.60;94887.44;5041987;28;20259;-79
2023/04/30 03:27:17;;;;;;;14.63;7.90;;;;;;;10.07;90.46;94886.69;5030956;28;20254;-79
2023/04/30 03:29:43;;;;;;;13.07;7.50;;;;;;;10.10;89.36;94888.91;5023997;28;20222;-79
2023/04/30 03:32:08;;;;;;;14.33;7.73;;;;;;;10.12;88.91;94881.69;5005338;28;20230;-79
2023/04/30 03:34:34;;;;;;;14.70;7.30;;;;;;;10.19;88.97;94884.31;5032138;28;20239;-79
2023/04/30 03:37:00;;;;;;;13.40;7.57;;;;;;;10.23;89.15;94881.09;5018660;28;20234;-81
2023/04/30 03:39:26;;;;;;;11.70;7.00;;;;;;;10.19;89.35;94889.56;5029545;28;20244;-77
2023/04/30 03:41:51;;;;;;;17.67;7.43;;;;;;;10.05;90.01;94896.53;5015460;28;20305;-80
2023/04/30 03:44:17;;;;;;;18.00;8.13;;;;;;;10.10;90.39;94899.38;5005474;28;20234;-78
2023/04/30 03:46:42;;;;;;;13.43;7.23;;;;;;;10.12;90.48;94902.63;5015738;28;20230;-78
2023/04/30 03:49:08;;;;;;;15.67;7.40;;;;;;;10.26;90.13;94911.28;5025565;28;20226;-79
2023/04/30 03:51:38;;;;;;;15.30;7.20;;;;;;;10.19;88.81;94902.63;4995605;28;20227;-79
2023/04/30 03:54:05;;;;;;;13.77;7.10;;;;;;;10.17;88.90;94915.91;5024367;28;20241;-79
2023/04/30 03:56:31;;;;;;;12.77;6.90;;;;;;;10.19;89.19;94919.13;5025981;28;20226;-80
2023/04/30 03:58:56;;;;;;;11.40;6.97;;;;;;;10.20;89.11;94917.31;5037760;28;20314;-80
2023/04/30 04:01:22;;;;;;;11.67;6.43;;;;;;;10.23;89.26;94915.13;5025131;28;20227;-80
2023/04/30 04:03:47;;;;;;;13.10;6.83;;;;;;;10.29;87.45;94919.56;5035748;28;20462;-80
2023/04/30 04:06:12;;;;;;;11.67;6.90;;;;;;;10.18;87.17;94914.09;5013590;28;20230;-80
2023/04/30 04:08:41;;;;;;;14.30;7.00;;;;;;;10.36;86.80;94923.00;5005679;28;20722;-79
2023/04/30 04:11:08;;;;;;;13.47;6.60;;;;;;;10.33;86.70;94915.53;5037066;28;20235;-80
2023/04/30 04:13:33;;;;;;;12.80;7.00;;;;;;;10.30;86.37;94915.94;5022715;28;20374;-80
2023/04/30 04:15:59;;;;;;;13.90;6.77;;;;;;;10.33;86.73;94919.97;5020453;28;20226;-80
2023/04/30 04:18:25;;;;;;;14.43;7.00;;;;;;;10.18;87.29;94917.50;5000076;28;20229;-79
2023/04/30 04:20:55;;;;;;;13.37;7.17;;;;;;;10.20;87.72;94918.13;5020214;28;20230;-79
2023/04/30 04:23:20;;;;;;;13.23;7.07;;;;;;;10.34;86.92;94919.75;5023453;28;20219;-78
2023/04/30 04:25:48;;;;;;;11.33;6.80;;;;;;;10.43;87.15;94926.44;5027717;28;20261;-79
2023/04/30 04:28:15;;;;;;;15.07;7.00;;;;;;;10.43;87.69;94931.69;5038909;28;20233;-79
2023/04/30 04:30:40;;;;;;;12.03;6.90;;;;;;;10.49;87.14;94923.03;5022866;28;20242;-80
2023/04/30 04:33:06;;;;;;;15.10;7.80;;;;;;;10.68;86.46;94930.09;5009226;28;20234;-80
2023/04/30 04:35:32;;;;;;;43.47;25.30;;;;;;;10.65;85.00;94933.09;5000422;28;20254;-79
2023/04/30 04:37:57;;;;;;;43.33;24.43;;;;;;;10.67;86.03;94938.97;5003893;28;20222;-80
2023/04/30 04:40:23;;;;;;;49.20;27.77;;;;;;;10.53;85.50;94937.31;5022251;28;20241;-79
2023/04/30 04:42:50;;;;;;;47.13;25.63;;;;;;;10.67;84.38;94935.53;5034504;28;20245;-81
2023/04/30 04:45:16;;;;;;;36.20;20.97;;;;;;;10.60;84.27;94937.34;5007100;28;20226;-80
2023/04/30 04:47:41;;;;;;;38.90;22.50;;;;;;;10.84;84.40;94942.00;5035036;28;20253;-80
2023/04/30 04:50:07;;;;;;;38.60;20.30;;;;;;;10.94;83.47;94944.22;5019788;28;20230;-77
2023/04/30 04:52:33;;;;;;;39.40;21.03;;;;;;;10.86;83.68;94947.84;5033972;28;20218;-80
2023/04/30 04:54:58;;;;;;;37.40;20.77;;;;;;;10.96;84.31;94940.41;5040578;28;20230;-80
2023/04/30 04:57:24;;;;;;;36.77;21.13;;;;;;;10.93;84.15;94945.22;5029708;28;20234;-79
2023/04/30 04:59:50;;;;;;;39.47;20.80;;;;;;;11.08;84.17;94943.22;5022895;28;20234;-80
2023/04/30 05:02:15;;;;;;;36.03;20.87;;;;;;;10.97;86.09;94952.47;5016887;28;20227;-80
2023/04/30 05:04:41;;;;;;;34.93;20.13;;;;;;;10.98;84.38;94955.91;5006429;28;20238;-81
2023/04/30 05:07:06;;;;;;;34.03;18.93;;;;;;;10.92;84.00;94951.44;5004453;28;20226;-80
2023/04/30 05:09:32;;;;;;;32.50;17.27;;;;;;;10.91;83.27;94955.09;5018463;28;20244;-80
2023/04/30 05:11:58;;;;;;;30.03;17.37;;;;;;;11.05;83.48;94952.28;5020437;28;20290;-80
2023/04/30 05:14:23;;;;;;;31.63;16.83;;;;;;;11.18;82.80;94960.13;5039067;28;20230;-80
2023/04/30 05:16:49;;;;;;;29.17;14.93;;;;;;;11.20;84.31;94958.09;5014826;28;20217;-80
2023/04/30 05:19:14;;;;;;;27.57;13.23;;;;;;;11.26;82.54;94956.50;5020493;28;20489;-80
2023/04/30 05:21:40;;;;;;;21.37;12.33;;;;;;;11.38;83.34;94953.06;5018253;28;20286;-81
2023/04/30 05:24:05;;;;;;;22.97;11.87;;;;;;;11.24;83.38;94958.53;5019247;28;20233;-80
2023/04/30 05:26:31;;;;;;;17.90;10.27;;;;;;;11.25;82.04;94957.50;5023788;28;20299;-80
2023/04/30 05:28:56;;;;;;;25.43;11.20;;;;;;;11.34;82.30;94951.84;5038011;28;20227;-79
2023/04/30 05:31:25;;;;;;;22.67;9.90;;;;;;;11.44;82.39;94961.91;4998899;28;20218;-80
2023/04/30 05:33:50;;;;;;;20.30;9.67;;;;;;;11.45;81.54;94958.31;5020080;28;20290;-80
2023/04/30 05:36:16;;;;;;;16.63;9.40;;;;;;;11.50;82.21;94961.13;5010438;28;20440;-79
2023/04/30 05:38:41;;;;;;;19.03;8.80;;;;;;;11.33;81.02;94957.31;4999315;28;20237;-80
2023/04/30 05:41:08;;;;;;;15.53;8.20;;;;;;;11.41;81.00;94957.91;5029722;28;20219;-79
2023/04/30 05:43:34;;;;;;;15.50;8.37;;;;;;;11.30;80.71;94962.94;5030701;28;20226;-81
2023/04/30 05:45:59;;;;;;;15.00;8.37;;;;;;;11.30;80.71;94955.09;5016632;28;20225;-80
2023/04/30 05:48:26;;;;;;;16.20;8.60;;;;;;;11.50;80.64;94954.06;5032509;28;20222;-79
2023/04/30 05:50:51;;;;;;;16.00;8.23;;;;;;;11.58;80.29;94947.81;4999298;28;20226;-80
2023/04/30 05:53:17;;;;;;;15.40;7.53;;;;;;;11.50;80.77;94955.88;5021707;28;20229;-81
2023/04/30 05:55:42;;;;;;;14.93;7.60;;;;;;;11.49;80.37;94962.13;5014276;28;20229;-81
2023/04/30 05:58:08;;;;;;;15.40;7.60;;;;;;;11.60;79.97;94956.28;5020500;28;20221;-81
2023/04/30 06:00:34;;;;;;;12.17;7.27;;;;;;;11.84;80.72;94957.47;5036143;28;20234;-82
2023/04/30 06:03:03;;;;;;;16.50;8.47;;;;;;;11.82;79.80;94962.09;5023894;28;20253;-81
2023/04/30 06:05:28;;;;;;;14.00;8.13;;;;;;;11.77;80.20;94964.53;5033254;28;20624;-80
2023/04/30 06:07:54;;;;;;;18.63;9.30;;;;;;;11.79;80.63;94963.31;5024526;28;20241;-80
2023/04/30 06:10:20;;;;;;;20.90;10.70;;;;;;;11.83;81.15;94968.94;5043879;28;20238;-77
2023/04/30 06:12:45;;;;;;;22.30;11.03;;;;;;;12.07;80.66;94961.22;5001462;28;20226;-80
2023/04/30 06:15:11;;;;;;;27.77;12.50;;;;;;;12.21;80.75;94971.63;5024192;28;20284;-80
2023/04/30 06:17:39;;;;;;;28.63;12.60;;;;;;;12.42;79.74;94974.00;5016069;28;20237;-81
2023/04/30 06:20:08;;;;;;;31.00;13.67;;;;;;;12.28;79.23;94972.41;5019204;28;20317;-80
2023/04/30 06:22:33;;;;;;;36.80;14.50;;;;;;;12.45;78.49;94971.75;5033612;28;20679;-79
2023/04/30 06:24:59;;;;;;;35.57;14.00;;;;;;;12.52;77.36;94964.63;5018766;28;20234;-80
2023/04/30 06:27:28;;;;;;;33.03;14.30;;;;;;;12.54;77.35;94978.34;5024877;28;20291;-79
2023/04/30 06:29:54;;;;;;;36.27;15.00;;;;;;;12.64;78.34;94970.84;5026796;28;20269;-79
2023/04/30 06:32:19;;;;;;;30.80;14.53;;;;;;;12.57;77.31;94977.13;5031641;28;20229;-77
2023/04/30 06:34:47;;;;;;;32.07;13.90;;;;;;;12.43;78.43;94979.03;5037579;28;20229;-79
2023/04/30 06:37:13;;;;;;;26.67;14.13;;;;;;;12.26;79.93;94975.25;5035633;28;20231;-80
2023/04/30 06:39:38;;;;;;;27.40;14.43;;;;;;;12.18;79.04;94983.34;5024419;28;23331;-79
2023/04/30 06:42:04;;;;;;;29.10;13.80;;;;;;;12.54;77.17;94980.16;5027494;28;20764;-80
2023/04/30 06:44:29;;;;;;;26.53;14.27;;;;;;;13.06;75.84;94974.66;5039943;28;20223;-79
2023/04/30 06:46:55;;;;;;;24.03;12.93;;;;;;;13.62;74.17;94976.41;5001374;28;20283;-82
2023/04/30 06:49:20;;;;;;;26.90;13.30;;;;;;;13.73;71.81;94978.34;5038261;28;20230;-79
2023/04/30 06:51:46;;;;;;;26.20;13.57;;;;;;;13.59;71.00;94977.63;4999941;28;20225;-79
2023/04/30 06:54:11;;;;;;;23.30;13.63;;;;;;;13.90;72.36;94982.00;5019163;28;20234;-81
2023/04/30 06:56:37;;;;;;;24.33;13.20;;;;;;;13.92;70.77;94975.47;5017192;28;20230;-80
2023/04/30 06:59:02;;;;;;;27.67;13.47;;;;;;;13.90;70.41;94972.28;5018266;28;20233;-80
2023/04/30 07:01:28;;;;;;;25.50;13.60;;;;;;;14.01;70.76;94974.19;5004273;28;20288;-80
2023/04/30 07:03:53;;;;;;;22.83;13.07;;;;;;;14.29;71.22;94970.22;5014177;28;20234;-79
2023/04/30 07:06:20;;;;;;;24.20;12.83;;;;;;;14.19;69.48;94976.81;5039304;28;20222;-77
2023/04/30 07:08:45;;;;;;;25.07;11.93;;;;;;;14.13;69.99;94974.25;5012935;28;20593;-78
2023/04/30 07:11:11;;;;;;;20.97;12.03;;;;;;;14.13;69.16;94976.91;4995137;28;20260;-80
2023/04/30 07:13:37;;;;;;;25.07;12.63;;;;;;;14.12;69.27;94976.09;5005043;28;20254;-79
2023/04/30 07:16:04;;;;;;;25.07;13.23;;;;;;;14.13;69.26;94980.34;5018835;28;20596;-79
2023/04/30 07:18:30;;;;;;;20.90;12.23;;;;;;;14.14;69.85;94986.38;5017109;28;20262;-80
2023/04/30 07:20:55;;;;;;;25.00;12.07;;;;;;;14.12;70.17;94985.81;5004599;28;20230;-80
2023/04/30 07:23:21;;;;;;;21.30;11.10;;;;;;;14.05;69.55;94983.25;5039997;28;20219;-77
2023/04/30 07:25:46;;;;;;;21.97;11.07;;;;;;;14.18;68.68;94985.75;5011151;28;20223;-80
2023/04/30 07:28:12;;;;;;;23.77;10.97;;;;;;;14.13;69.78;94979.53;5007235;28;20241;-80
2023/04/30 07:30:37;;;;;;;20.53;10.43;;;;;;;14.02;69.62;94982.88;5039206;28;20228;-80
2023/04/30 07:33:07;;;;;;;24.23;10.40;;;;;;;14.14;68.45;94975.84;5018724;28;20718;-80
2023/04/30 07:35:32;;;;;;;23.40;10.80;;;;;;;14.29;68.71;94986.84;5017869;28;20218;-80
2023/04/30 07:37:58;;;;;;;19.37;10.00;;;;;;;14.35;68.70;94986.00;5015378;28;20233;-79
2023/04/30 07:40:23;;;;;;;18.87;9.93;;;;;;;14.36;67.70;94989.41;5011332;28;20261;-79
2023/04/30 07:42:49;;;;;;;21.33;10.03;;;;;;;14.32;66.37;94990.88;5010927;28;20237;-79
2023/04/30 07:45:14;;;;;;;17.47;9.57;;;;;;;14.43;66.88;94988.31;4998139;28;20230;-80
2023/04/30 07:47:40;;;;;;;21.30;9.80;;;;;;;14.55;66.96;94989.16;5039421;28;20238;-79
2023/04/30 07:50:06;;;;;;;23.00;9.93;;;;;;;14.74;66.33;94985.47;5016698;28;20292;-79
2023/04/30 07:52:31;;;;;;;20.33;10.03;;;;;;;14.76;64.54;94988.69;5037361;28;20238;-80
2023/04/30 07:54:57;;;;;;;20.40;9.87;;;;;;;14.90;65.36;94984.06;5021580;28;20226;-81
2023/04/30 07:57:25;;;;;;;23.47;9.80;;;;;;;15.19;64.52;94990.34;5011122;28;20234;-80
2023/04/30 07:59:51;;;;;;;17.77;9.23;;;;;;;15.74;63.98;94991.66;5006463;28;20280;-81
2023/04/30 08:02:16;;;;;;;17.53;9.03;;;;;;;16.31;60.61;94991.88;5000196;28;20231;-80
2023/04/30 08:04:42;;;;;;;16.37;8.37;;;;;;;16.50;60.72;94985.41;5013884;28;20227;-81
2023/04/30 08:07:07;;;;;;;15.17;7.27;;;;;;;16.40;58.49;94982.53;5025021;28;20222;-79
2023/04/30 08:09:36;;;;;;;14.67;7.10;;;;;;;16.31;59.33;94991.88;5017152;28;20268;-81
2023/04/30 08:12:03;;;;;;;13.37;7.17;;;;;;;16.73;57.77;94990.63;5020960;28;20270;-81
2023/04/30 08:14:29;;;;;;;14.30;6.40;;;;;;;16.58;58.99;94990.31;5011715;28;20226;-81
2023/04/30 08:16:57;;;;;;;13.07;6.30;;;;;;;16.51;57.68;94997.56;5019428;28;20229;-80
2023/04/30 08:19:22;;;;;;;13.90;6.33;;;;;;;16.48;57.50;94990.13;5032212;28;20265;-79
2023/04/30 08:21:48;;;;;;;12.57;5.50;;;;;;;16.32;58.81;94996.09;5008677;28;20230;-80
2023/04/30 08:24:13;;;;;;;14.70;5.60;;;;;;;16.08;59.34;95000.63;5015291;28;20223;-80
2023/04/30 08:26:39;;;;;;;9.40;5.10;;;;;;;15.80;58.96;94997.88;5018832;28;20236;-79
2023/04/30 08:29:07;;;;;;;9.47;5.33;;;;;;;15.71;60.17;95001.91;5014202;28;20229;-80
2023/04/30 08:31:32;;;;;;;8.27;5.20;;;;;;;15.64;60.61;95002.03;5045675;28;20222;-80
2023/04/30 08:33:58;;;;;;;10.17;5.30;;;;;;;15.63;61.82;94997.75;5018886;28;20531;-80
2023/04/30 08:36:23;;;;;;;8.90;5.30;;;;;;;15.76;63.02;94994.88;5014391;28;20221;-78
2023/04/30 08:38:49;;;;;;;10.93;5.53;;;;;;;15.75;62.31;94995.94;5027465;28;20231;-80
2023/04/30 08:41:15;;;;;;;8.50;5.27;;;;;;;15.85;61.39;94992.72;5009031;28;20350;-79
2023/04/30 08:43:43;;;;;;;8.93;5.20;;;;;;;15.94;60.44;94997.41;5036883;28;20731;-80
2023/04/30 08:46:08;;;;;;;9.73;4.90;;;;;;;15.96;59.36;94992.72;5006614;28;20233;-82
2023/04/30 08:48:34;;;;;;;10.37;5.07;;;;;;;16.38;59.49;94992.53;4995844;28;20223;-80
2023/04/30 08:51:03;;;;;;;11.03;5.13;;;;;;;16.38;58.40;94985.44;5044077;28;20229;-79
2023/04/30 08:53:29;;;;;;;8.27;4.90;;;;;;;16.31;58.46;94987.38;5017207;28;20249;-80
2023/04/30 08:55:55;;;;;;;8.90;4.90;;;;;;;16.56;57.19;94979.19;5001643;28;20226;-79
2023/04/30 08:58:20;;;;;;;8.83;4.63;;;;;;;17.28;55.72;94983.72;5021892;28;20585;-80
2023/04/30 09:00:46;;;;;;;6.73;4.50;;;;;;;17.67;53.39;94973.25;5042451;28;20227;-80
2023/04/30 09:03:11;;;;;;;10.67;4.93;;;;;;;18.16;52.89;94973.16;5038958;28;20229;-81
2023/04/30 09:05:37;;;;;;;7.70;4.50;;;;;;;18.12;51.47;94966.75;5012536;28;20284;-79
2023/04/30 09:08:03;;;;;;;7.30;4.40;;;;;;;18.32;51.50;94960.91;5022350;28;20287;-79
2023/04/30 09:10:34;;;;;;;8.90;4.97;;;;;;;18.32;50.97;94962.78;5002985;28;20235;-80
2023/04/30 09:13:09;;;;;;;13.40;5.20;;;;;;;18.68;50.66;94962.16;4998246;28;20237;-79
2023/04/30 09:15:35;;;;;;;8.73;4.90;;;;;;;18.86;49.04;94961.03;5022026;28;20335;-81
2023/04/30 09:18:17;;;;;;;8.57;4.60;;;;;;;18.82;48.74;94952.75;5017961;28;20214;-79
2023/04/30 09:21:00;;;;;;;6.50;4.20;;;;;;;19.05;49.01;94952.47;5020250;28;20292;-78
2023/04/30 09:23:26;;;;;;;7.43;4.63;;;;;;;18.92;46.85;94952.06;5032510;28;20708;-81
2023/04/30 09:25:51;;;;;;;7.97;4.50;;;;;;;19.28;46.58;94946.84;5025451;28;20230;-81
2023/04/30 09:28:17;;;;;;;8.27;4.90;;;;;;;19.55;46.70;94941.53;5047403;28;20230;-81
2023/04/30 09:30:42;;;;;;;8.07;4.33;;;;;;;19.86;46.46;94943.34;5001047;28;20331;-80
2023/04/30 09:33:08;;;;;;;6.63;4.70;;;;;;;20.05;45.78;94941.84;5007746;28;20233;-82
2023/04/30 09:35:35;;;;;;;8.43;4.40;;;;;;;19.67;45.50;94941.34;5020506;28;20319;-81
2023/04/30 09:38:01;;;;;;;6.80;4.40;;;;;;;19.76;47.14;94937.94;5025876;28;20222;-81
2023/04/30 09:40:41;;;;;;;8.67;4.53;;;;;;;19.97;46.51;94925.59;5026336;28;20252;-83
2023/04/30 09:43:07;;;;;;;6.87;4.70;;;;;;;19.73;47.01;94932.34;5021363;28;20226;-81
2023/04/30 09:45:40;;;;;;;7.30;4.50;;;;;;;19.46;47.51;94929.78;5017164;28;20223;-81
2023/04/30 09:48:07;;;;;;;5.77;4.47;;;;;;;19.35;46.96;94928.03;5037657;28;20233;-81
2023/04/30 09:50:39;;;;;;;6.33;4.20;;;;;;;18.87;47.66;94930.81;5008811;28;20238;-82
2023/04/30 09:53:09;;;;;;;5.47;4.40;;;;;;;18.75;48.64;94925.63;5004042;28;20218;-81
2023/04/30 09:55:35;;;;;;;7.23;4.10;;;;;;;18.70;48.71;94928.25;5001550;28;20241;-83
2023/04/30 09:58:05;;;;;;;5.03;4.00;;;;;;;18.54;51.10;94916.66;5043332;28;20301;-81
2023/04/30 10:00:32;;;;;;;7.37;4.43;;;;;;;18.42;48.47;94921.28;5044179;28;20230;-82
2023/04/30 10:02:58;;;;;;;4.93;4.30;;;;;;;19.24;48.66;94919.22;5002470;28;20219;-81
2023/04/30 10:05:23;;;;;;;5.47;4.50;;;;;;;19.83;46.59;94916.47;5018635;28;20234;-79
2023/04/30 10:07:49;;;;;;;6.47;4.20;;;;;;;20.20;46.02;94917.22;5032143;28;20230;-81
2023/04/30 10:10:14;;;;;;;5.07;4.20;;;;;;;20.55;44.83;94905.94;5004197;28;20265;-84
2023/04/30 10:12:50;;;;;;;6.90;4.33;;;;;;;20.57;46.08;94907.28;5013619;28;20626;-82
2023/04/30 10:15:19;;;;;;;5.83;4.03;;;;;;;20.55;44.85;94901.44;5022720;28;20258;-82
2023/04/30 10:17:49;;;;;;;6.63;4.20;;;;;;;20.47;45.73;94903.78;5003966;28;20222;-81
2023/04/30 10:20:15;;;;;;;6.50;4.37;;;;;;;19.78;45.34;94911.94;5025913;28;20228;-81
2023/04/30 10:22:42;;;;;;;7.47;4.17;;;;;;;19.01;46.44;94908.13;5011814;28;20661;-81
2023/04/30 10:25:12;;;;;;;7.23;4.00;;;;;;;18.65;48.07;94917.59;4993514;28;20226;-79
2023/04/30 10:27:38;;;;;;;7.33;3.97;;;;;;;17.96;50.05;94922.56;5017948;28;20247;-79
2023/04/30 10:30:05;;;;;;;8.40;4.13;;;;;;;17.74;51.56;94936.81;5021294;28;20723;-80
2023/04/30 10:32:34;;;;;;;12.67;4.40;;;;;;;17.45;55.14;94938.72;5016313;28;20229;-80
2023/04/30 10:35:07;;;;;;;9.27;3.90;;;;;;;16.97;59.75;94946.38;5017810;28;20344;-80
2023/04/30 10:37:39;;;;;;;5.87;3.60;;;;;;;16.60;61.97;94940.69;5023143;28;20253;-77
2023/04/30 10:40:07;;;;;;;7.33;3.60;;;;;;;16.23;67.84;94966.63;5028998;28;20266;-79
2023/04/30 10:42:34;;;;;;;5.97;3.83;;;;;;;15.99;70.18;94965.84;5037538;28;20238;-81
2023/04/30 10:45:02;;;;;;;5.87;4.10;;;;;;;16.02;69.99;94948.75;5018645;28;20218;-80
2023/04/30 10:47:28;;;;;;;8.50;4.60;;;;;;;16.22;74.85;94943.06;4996015;28;20236;-79
2023/04/30 10:50:04;;;;;;;4.80;4.20;;;;;;;17.27;74.84;94939.75;5020850;28;20700;-80
2023/04/30 10:52:30;;;;;;;6.33;4.70;;;;;;;18.00;76.86;94934.28;4998102;28;20746;-78
2023/04/30 10:54:56;;;;;;;7.57;4.67;;;;;;;18.43;70.54;94944.09;5024373;28;20234;-79
2023/04/30 10:57:21;;;;;;;7.33;5.10;;;;;;;18.86;68.37;94940.63;5031962;28;20734;-78
2023/04/30 10:59:51;;;;;;;6.90;3.67;;;;;;;18.81;58.34;94929.94;5000467;28;20230;-80
2023/04/30 11:02:16;;;;;;;6.23;4.10;;;;;;;18.99;61.11;94929.59;5041693;28;20242;-81
2023/04/30 11:05:05;;;;;;;5.67;3.90;;;;;;;19.26;57.64;94932.22;4999931;28;20237;-80
2023/04/30 11:07:30;;;;;;;5.30;3.80;;;;;;;19.14;57.36;94936.88;5015164;28;20300;-81
2023/04/30 11:09:56;;;;;;;6.13;3.90;;;;;;;19.43;54.26;94930.28;5033275;28;20234;-81
2023/04/30 11:12:27;;;;;;;4.47;3.40;;;;;;;19.15;53.08;94930.53;5015731;28;20715;-86
2023/04/30 11:15:06;;;;;;;6.40;4.00;;;;;;;18.88;55.31;94927.91;5007626;28;20238;-88
2023/04/30 11:17:32;;;;;;;6.30;4.30;;;;;;;18.94;57.37;94929.53;5013712;28;20237;-88
2023/04/30 11:19:59;;;;;;;4.90;3.40;;;;;;;18.61;52.40;94924.44;4999012;28;20222;-89
2023/04/30 11:22:34;;;;;;;5.20;3.47;;;;;;;18.38;54.43;94922.03;5008359;28;20230;-86